Time;durP1;ratioP1;P1;durP2;ratioP2;P2;SDS_P1;SDS_P2;PMS_P1;PMS_P2;Temp;Humidity;BMP_temperature;BMP_pressure;BME280_temperature;BME280_humidity;BME280_pressure;Samples;Min_cycle;Max_cycle;Signal;HPM_P1;HPM_P2
2022/08/02 00:02:13;;;;;;;4.18;2.85;;;13.10;99.90;;;;;;5033462;28;20249;-76
2022/08/02 00:04:39;;;;;;;3.13;2.65;;;13.10;99.90;;;;;;5033418;28;20184;-76
2022/08/02 00:07:04;;;;;;;5.55;2.95;;;13.00;99.90;;;;;;5032945;28;20516;-77
2022/08/02 00:09:30;;;;;;;4.72;3.33;;;13.10;99.90;;;;;;5032812;28;20517;-76
2022/08/02 00:11:56;;;;;;;4.03;2.53;;;13.00;99.90;;;;;;5033571;28;20069;-76
2022/08/02 00:14:21;;;;;;;4.10;2.90;;;13.00;99.90;;;;;;5033601;28;20088;-76
2022/08/02 00:16:47;;;;;;;3.97;3.33;;;13.00;99.90;;;;;;5033361;28;20049;-77
2022/08/02 00:19:13;;;;;;;3.72;3.33;;;13.00;99.90;;;;;;5033451;28;20045;-75
2022/08/02 00:21:38;;;;;;;6.68;3.13;;;13.00;99.90;;;;;;5033555;28;20046;-76
2022/08/02 00:24:04;;;;;;;6.55;3.58;;;13.10;99.90;;;;;;5033130;28;20102;-76
2022/08/02 00:26:30;;;;;;;6.88;3.83;;;13.10;99.90;;;;;;5033063;28;20476;-76
2022/08/02 00:28:56;;;;;;;4.65;2.33;;;13.10;99.90;;;;;;5033345;28;20045;-76
2022/08/02 00:31:22;;;;;;;5.25;3.22;;;13.20;99.90;;;;;;5033173;28;20057;-76
2022/08/02 00:33:47;;;;;;;3.40;2.67;;;13.20;99.90;;;;;;5031747;28;20077;-75
2022/08/02 00:36:13;;;;;;;5.50;3.45;;;13.20;99.90;;;;;;5033225;28;20045;-75
2022/08/02 00:38:39;;;;;;;3.78;2.90;;;13.20;99.90;;;;;;5032624;28;20580;-76
2022/08/02 00:41:12;;;;;;;6.07;3.30;;;13.20;99.90;;;;;;5033178;28;20073;-75
2022/08/02 00:43:37;;;;;;;5.10;2.90;;;13.20;99.90;;;;;;5033144;28;20041;-77
2022/08/02 00:46:03;;;;;;;6.30;2.80;;;13.20;99.90;;;;;;5032635;28;20052;-75
2022/08/02 00:48:28;;;;;;;6.05;3.30;;;13.10;99.90;;;;;;5032980;28;20511;-75
2022/08/02 00:50:55;;;;;;;7.93;4.30;;;13.10;99.90;;;;;;5033114;28;20382;-76
2022/08/02 00:53:21;;;;;;;4.40;3.08;;;13.10;99.90;;;;;;5032931;28;20058;-76
2022/08/02 00:55:47;;;;;;;5.93;2.72;;;13.00;99.90;;;;;;5032664;28;20432;-77
2022/08/02 00:58:13;;;;;;;5.03;2.85;;;13.00;99.90;;;;;;5015369;28;20056;-76
2022/08/02 01:00:38;;;;;;;3.67;2.40;;;13.00;99.90;;;;;;5032545;28;20049;-75
2022/08/02 01:03:04;;;;;;;3.33;2.63;;;13.00;99.90;;;;;;5032479;28;20044;-76
2022/08/02 01:05:30;;;;;;;4.72;2.72;;;13.00;99.90;;;;;;5032668;28;20090;-75
2022/08/02 01:07:56;;;;;;;6.00;2.90;;;12.90;99.90;;;;;;5032749;28;20046;-76
2022/08/02 01:10:23;;;;;;;4.60;2.70;;;12.90;99.90;;;;;;5032419;28;20056;-75
2022/08/02 01:12:49;;;;;;;5.45;2.92;;;12.90;99.90;;;;;;5032758;28;20470;-75
2022/08/02 01:15:16;;;;;;;5.20;3.13;;;12.90;99.90;;;;;;5032600;28;20056;-75
2022/08/02 01:17:53;;;;;;;5.90;2.90;;;12.90;99.90;;;;;;5032715;28;20053;-76
2022/08/02 01:20:43;;;;;;;6.03;3.25;;;12.80;99.90;;;;;;5031163;28;20041;-75
2022/08/02 01:23:49;;;;;;;3.47;2.38;;;12.80;99.90;;;;;;5031982;28;20503;-75
2022/08/02 01:26:34;;;;;;;6.57;3.00;;;12.80;99.90;;;;;;5033039;28;20045;-77
2022/08/02 01:29:08;;;;;;;4.60;2.40;;;12.70;99.90;;;;;;5032745;28;20045;-76
2022/08/02 01:31:47;;;;;;;4.43;2.67;;;12.70;99.90;;;;;;5032556;28;20053;-76
2022/08/02 01:34:31;;;;;;;7.00;2.97;;;12.60;99.90;;;;;;5032287;28;20052;-76
2022/08/02 01:37:04;;;;;;;6.25;3.10;;;12.60;99.90;;;;;;5032699;28;20045;-76
2022/08/02 01:39:32;;;;;;;;;;;12.50;99.90;;;;;;5032707;28;20056;-76
2022/08/02 01:42:00;;;;;;;4.47;2.65;;;12.40;99.90;;;;;;5032097;28;19922;-76
2022/08/02 01:44:31;;;;;;;4.28;3.42;;;12.30;99.90;;;;;;5032158;28;20052;-77
2022/08/02 01:47:01;;;;;;;3.53;3.10;;;12.20;99.90;;;;;;5032421;28;20059;-76
2022/08/02 01:49:29;;;;;;;4.50;4.05;;;12.10;99.90;;;;;;5032238;28;20084;-76
2022/08/02 01:54:43;;;;;;;5.00;3.78;;;12.00;99.90;;;;;;5032171;28;20053;-76
2022/08/02 01:57:10;;;;;;;4.03;3.05;;;12.00;99.90;;;;;;5032294;28;20118;-76
2022/08/02 01:59:38;;;;;;;6.95;5.40;;;12.00;99.90;;;;;;5032232;28;20045;-75
2022/08/02 02:02:07;;;;;;;8.20;4.00;;;12.00;99.90;;;;;;5032237;28;20046;-76
2022/08/02 02:04:36;;;;;;;8.18;3.35;;;11.90;99.90;;;;;;5031794;28;20046;-77
2022/08/02 02:07:02;;;;;;;4.43;3.63;;;11.80;99.90;;;;;;5032228;28;20050;-76
2022/08/02 02:09:30;;;;;;;4.00;3.10;;;11.80;99.90;;;;;;5032170;28;20091;-75
2022/08/02 02:11:58;;;;;;;6.22;3.25;;;11.80;99.90;;;;;;5032162;28;20041;-76
2022/08/02 02:14:26;;;;;;;3.95;2.92;;;11.80;99.90;;;;;;5032055;28;20077;-76
2022/08/02 02:16:52;;;;;;;5.10;3.28;;;11.90;99.90;;;;;;5032011;28;20042;-77
2022/08/02 02:19:19;;;;;;;7.20;3.75;;;11.90;99.90;;;;;;5031919;28;20164;-76
2022/08/02 02:21:44;;;;;;;3.88;3.05;;;11.90;99.90;;;;;;5032361;28;20045;-76
2022/08/02 02:24:10;;;;;;;5.88;3.60;;;12.00;99.90;;;;;;5031842;28;20536;-73
2022/08/02 02:26:38;;;;;;;5.93;3.38;;;12.00;99.90;;;;;;5032138;28;20038;-76
2022/08/02 02:29:07;;;;;;;6.00;3.92;;;12.00;99.90;;;;;;5030712;28;20056;-76
2022/08/02 02:31:42;;;;;;;3.70;2.33;;;12.00;99.90;;;;;;5032824;28;20049;-77
2022/08/02 02:34:15;;;;;;;7.93;3.80;;;12.10;99.90;;;;;;5035372;28;20487;-75
2022/08/02 02:36:46;;;;;;;9.00;4.28;;;12.10;99.90;;;;;;5036993;28;20129;-76
2022/08/02 02:39:14;;;;;;;6.85;4.40;;;12.10;99.90;;;;;;5036572;28;20049;-75
2022/08/02 02:41:42;;;;;;;4.75;3.67;;;12.10;99.90;;;;;;5036348;28;20462;-76
2022/08/02 02:44:11;;;;;;;4.20;3.00;;;12.10;99.90;;;;;;5035529;28;20049;-76
2022/08/02 02:46:37;;;;;;;11.70;4.53;;;12.10;99.90;;;;;;5035302;28;20046;-75
2022/08/02 02:49:03;;;;;;;4.72;3.33;;;12.20;99.90;;;;;;5035378;28;20065;-76
2022/08/02 02:51:29;;;;;;;7.18;3.22;;;12.20;99.90;;;;;;5035357;28;20195;-75
2022/08/02 02:53:56;;;;;;;3.53;3.17;;;12.20;99.90;;;;;;5035455;28;20061;-75
2022/08/02 02:56:23;;;;;;;5.88;3.67;;;12.20;99.90;;;;;;5034977;28;20516;-76
2022/08/02 02:58:49;;;;;;;4.63;3.00;;;12.20;99.90;;;;;;5034776;28;20483;-76
2022/08/02 03:01:27;;;;;;;3.22;2.83;;;12.20;99.90;;;;;;5034937;28;20045;-76
2022/08/02 03:03:54;;;;;;;4.25;3.38;;;12.20;99.90;;;;;;5035336;28;20046;-76
2022/08/02 03:06:20;;;;;;;6.22;3.50;;;12.20;99.90;;;;;;5034976;28;20052;-75
2022/08/02 03:08:46;;;;;;;6.03;3.45;;;12.30;99.90;;;;;;5034993;28;20045;-76
2022/08/02 03:11:13;;;;;;;5.90;3.10;;;12.20;99.90;;;;;;5035299;28;20045;-75
2022/08/02 03:13:39;;;;;;;7.20;4.00;;;12.20;99.90;;;;;;5034642;28;20048;-77
2022/08/02 03:16:06;;;;;;;4.55;3.38;;;12.10;99.90;;;;;;5034515;28;20048;-76
2022/08/02 03:18:36;;;;;;;5.10;3.33;;;12.20;99.90;;;;;;5034926;28;20068;-76
2022/08/02 03:21:07;;;;;;;6.10;3.72;;;12.20;99.90;;;;;;5034421;28;20056;-76
2022/08/02 03:23:33;;;;;;;4.13;3.42;;;12.20;99.90;;;;;;5034396;28;20639;-76
2022/08/02 03:26:00;;;;;;;6.28;3.10;;;12.10;99.90;;;;;;5034997;28;20092;-75
2022/08/02 03:28:26;;;;;;;3.92;3.53;;;12.10;99.90;;;;;;5034351;28;20045;-75
2022/08/02 03:30:53;;;;;;;5.43;4.50;;;12.10;99.90;;;;;;5034860;28;20343;-77
2022/08/02 03:33:20;;;;;;;6.53;4.22;;;12.10;99.90;;;;;;5034683;28;20076;-76
2022/08/02 03:35:48;;;;;;;6.05;3.85;;;12.00;99.90;;;;;;5033836;28;20475;-76
2022/08/02 03:38:16;;;;;;;8.27;4.60;;;12.00;99.90;;;;;;5033172;28;20084;-75
2022/08/02 03:40:43;;;;;;;4.30;2.97;;;12.00;99.90;;;;;;5034237;28;20051;-76
2022/08/02 03:43:09;;;;;;;8.07;4.55;;;12.00;99.90;;;;;;5034341;28;20121;-76
2022/08/02 03:45:38;;;;;;;7.40;3.50;;;11.90;99.90;;;;;;5034084;28;20502;-75
2022/08/02 03:48:04;;;;;;;6.95;3.33;;;11.90;99.90;;;;;;5034041;28;20049;-75
2022/08/02 03:50:32;;;;;;;4.30;3.10;;;11.90;99.90;;;;;;5033587;28;20431;-75
2022/08/02 03:52:59;;;;;;;5.47;2.85;;;11.90;99.90;;;;;;5033458;28;20150;-76
2022/08/02 03:55:25;;;;;;;5.40;3.45;;;11.90;99.90;;;;;;5033678;28;20491;-75
2022/08/02 03:57:50;;;;;;;6.07;4.07;;;12.00;99.90;;;;;;5033752;28;20584;-76
2022/08/02 04:00:19;;;;;;;6.18;3.75;;;11.90;99.90;;;;;;5032106;28;20077;-75
2022/08/02 04:02:45;;;;;;;11.35;4.70;;;12.00;99.90;;;;;;5033669;28;20485;-76
2022/08/02 04:05:11;;;;;;;7.43;3.50;;;11.90;99.90;;;;;;5033653;28;20085;-76
2022/08/02 04:07:37;;;;;;;5.65;4.15;;;11.90;99.90;;;;;;5033562;28;20169;-75
2022/08/02 04:10:04;;;;;;;5.50;4.43;;;11.90;99.90;;;;;;5032647;28;20377;-76
2022/08/02 04:12:29;;;;;;;6.55;4.53;;;11.90;99.90;;;;;;5032866;28;20120;-75
2022/08/02 04:14:56;;;;;;;5.55;3.78;;;11.90;99.90;;;;;;5033735;28;20077;-75
2022/08/02 04:17:22;;;;;;;6.03;3.47;;;11.90;99.90;;;;;;5033355;28;20098;-75
2022/08/02 04:19:52;;;;;;;8.32;3.88;;;12.00;99.90;;;;;;5033442;28;20048;-75
2022/08/02 04:22:29;;;;;;;8.43;4.18;;;12.00;99.90;;;;;;5034003;28;20049;-76
2022/08/02 04:24:58;;;;;;;8.13;4.78;;;12.10;99.90;;;;;;5033234;28;20045;-76
2022/08/02 04:27:25;;;;;;;5.55;3.72;;;12.10;99.90;;;;;;5033270;28;20481;-76
2022/08/02 04:29:52;;;;;;;3.45;2.95;;;12.10;99.90;;;;;;5033288;28;20125;-77
2022/08/02 04:32:18;;;;;;;9.32;4.40;;;12.20;99.90;;;;;;5033267;28;20049;-77
2022/08/02 04:34:45;;;;;;;4.70;3.92;;;12.30;99.90;;;;;;5015742;28;20044;-77
2022/08/02 04:37:12;;;;;;;7.63;3.75;;;12.30;99.90;;;;;;5033522;28;20057;-76
2022/08/02 04:39:40;;;;;;;8.63;4.45;;;12.30;99.90;;;;;;5033007;28;20072;-78
2022/08/02 04:42:06;;;;;;;8.15;3.80;;;12.40;99.90;;;;;;5033081;28;20050;-77
2022/08/02 04:44:32;;;;;;;7.32;4.30;;;12.40;99.90;;;;;;5033030;28;20049;-77
2022/08/02 04:47:01;;;;;;;6.53;3.72;;;12.40;99.90;;;;;;5032940;28;20430;-77
2022/08/02 04:49:27;;;;;;;6.82;3.55;;;12.50;99.90;;;;;;5032989;28;20049;-77
2022/08/02 04:51:53;;;;;;;9.05;3.60;;;12.50;99.90;;;;;;5032836;28;20045;-77
2022/08/02 04:54:19;;;;;;;4.18;3.05;;;12.50;99.90;;;;;;5032618;28;20059;-75
2022/08/02 04:56:45;;;;;;;4.18;3.72;;;12.50;99.90;;;;;;5032831;28;20041;-76
2022/08/02 04:59:11;;;;;;;7.13;3.78;;;12.70;99.90;;;;;;5032682;28;20041;-78
2022/08/02 05:01:38;;;;;;;7.20;4.93;;;12.80;99.90;;;;;;5033077;28;20080;-77
2022/08/02 05:04:04;;;;;;;7.47;4.50;;;12.80;99.90;;;;;;5033052;28;20053;-77
2022/08/02 05:06:30;;;;;;;7.15;4.50;;;12.90;99.90;;;;;;5032301;28;20466;-76
2022/08/02 05:08:56;;;;;;;5.20;3.85;;;13.00;99.90;;;;;;5032544;28;20495;-77
2022/08/02 05:11:23;;;;;;;6.25;4.15;;;13.00;99.90;;;;;;5032575;28;20053;-77
2022/08/02 05:13:49;;;;;;;5.82;3.92;;;13.10;99.90;;;;;;5033167;28;20052;-78
2022/08/02 05:16:15;;;;;;;6.55;4.63;;;13.20;99.90;;;;;;5032776;28;20097;-77
2022/08/02 05:18:41;;;;;;;7.68;4.50;;;13.20;99.90;;;;;;5032595;28;20056;-79
2022/08/02 05:21:07;;;;;;;5.45;3.58;;;13.30;99.90;;;;;;5032611;28;20045;-78
2022/08/02 05:23:32;;;;;;;6.68;4.70;;;13.40;99.90;;;;;;5032078;28;20091;-78
2022/08/02 05:25:58;;;;;;;6.50;4.15;;;13.50;99.90;;;;;;5032441;28;20049;-76
2022/08/02 05:28:24;;;;;;;5.00;4.28;;;13.50;99.90;;;;;;5032632;28;20128;-78
2022/08/02 05:30:50;;;;;;;8.32;3.90;;;13.60;99.90;;;;;;5032577;28;20045;-78
2022/08/02 05:33:16;;;;;;;4.93;3.90;;;13.70;99.90;;;;;;5032798;28;20123;-76
2022/08/02 05:35:42;;;;;;;5.68;4.00;;;13.80;99.90;;;;;;5032382;28;20501;-77
2022/08/02 05:38:07;;;;;;;6.38;3.80;;;13.90;99.90;;;;;;5032475;28;20057;-77
2022/08/02 05:40:33;;;;;;;8.45;4.53;;;14.10;99.90;;;;;;5032744;28;20536;-77
2022/08/02 05:42:59;;;;;;;8.65;3.85;;;14.20;99.90;;;;;;5032478;28;20095;-78
2022/08/02 05:45:25;;;;;;;6.15;3.50;;;14.40;99.90;;;;;;5032438;28;20045;-78
2022/08/02 05:47:51;;;;;;;9.18;3.75;;;14.50;99.90;;;;;;5032373;28;20404;-77
2022/08/02 05:50:17;;;;;;;6.13;3.55;;;14.70;99.90;;;;;;5032150;28;20179;-78
2022/08/02 05:52:50;;;;;;;5.50;3.28;;;14.80;99.90;;;;;;5031853;28;20092;-77
2022/08/02 05:55:20;;;;;;;10.82;4.07;;;15.00;99.90;;;;;;5031813;28;20132;-76
2022/08/02 05:58:29;;;;;;;11.73;4.07;;;15.10;99.90;;;;;;5032116;28;20049;-76
2022/08/02 06:00:59;;;;;;;7.80;3.70;;;15.20;99.90;;;;;;4999336;28;20053;-76
2022/08/02 06:03:37;;;;;;;6.18;3.30;;;15.30;99.90;;;;;;5031943;28;20112;-76
2022/08/02 06:06:12;;;;;;;5.45;3.55;;;15.40;99.90;;;;;;5032844;28;20046;-76
2022/08/02 06:08:43;;;;;;;5.70;3.13;;;15.50;99.90;;;;;;5036107;28;20081;-76
2022/08/02 06:11:12;;;;;;;6.07;3.75;;;15.70;99.90;;;;;;5035949;28;20076;-76
2022/08/02 06:13:40;;;;;;;7.82;3.53;;;15.80;99.90;;;;;;5035387;28;20071;-77
2022/08/02 06:16:06;;;;;;;3.92;2.85;;;15.90;99.90;;;;;;5035391;28;20099;-76
2022/08/02 06:18:33;;;;;;;5.45;3.38;;;16.10;99.90;;;;;;5035560;28;20056;-75
2022/08/02 06:21:01;;;;;;;3.70;3.03;;;16.20;99.90;;;;;;5035411;28;20037;-76
2022/08/02 06:23:28;;;;;;;7.53;3.45;;;16.40;99.90;;;;;;5035233;28;20051;-75
2022/08/02 06:25:55;;;;;;;5.38;3.08;;;16.50;99.90;;;;;;5035147;28;20053;-75
2022/08/02 06:28:22;;;;;;;4.65;3.40;;;16.50;99.90;;;;;;5035058;28;20057;-75
2022/08/02 06:30:47;;;;;;;7.00;2.85;;;16.70;99.90;;;;;;5035073;28;20073;-75
2022/08/02 06:33:14;;;;;;;4.63;2.78;;;16.90;99.90;;;;;;5035282;28;20354;-77
2022/08/02 06:35:58;;;;;;;3.88;3.45;;;17.00;99.90;;;;;;5034729;28;20050;-75
2022/08/02 06:38:26;;;;;;;9.25;3.47;;;17.10;99.90;;;;;;5035243;28;20045;-76
2022/08/02 06:40:59;;;;;;;5.75;3.00;;;17.30;99.90;;;;;;5035014;28;20053;-76
2022/08/02 06:43:48;;;;;;;5.15;3.40;;;17.60;99.90;;;;;;5035043;28;20497;-75
2022/08/02 06:46:14;;;;;;;5.25;3.60;;;17.80;99.90;;;;;;5035426;28;20113;-77
2022/08/02 06:48:40;;;;;;;6.45;2.78;;;18.30;99.90;;;;;;5034864;28;20507;-76
2022/08/02 06:51:06;;;;;;;6.75;2.97;;;19.20;99.90;;;;;;5034646;28;20491;-77
2022/08/02 06:53:32;;;;;;;10.75;3.30;;;20.20;99.90;;;;;;5034346;28;20041;-77
2022/08/02 06:55:58;;;;;;;9.07;3.03;;;20.80;99.90;;;;;;5034637;28;20042;-77
2022/08/02 06:58:24;;;;;;;9.20;3.00;;;21.40;99.90;;;;;;5035029;28;20041;-77
2022/08/02 07:00:49;;;;;;;8.30;2.53;;;22.10;99.90;;;;;;5034542;28;20484;-77
2022/08/02 07:03:16;;;;;;;3.65;2.28;;;23.00;99.90;;;;;;5034911;28;20091;-77
2022/08/02 07:05:46;;;;;;;4.32;2.55;;;23.20;99.90;;;;;;5034388;28;20121;-78
2022/08/02 07:08:12;;;;;;;4.70;2.53;;;23.60;99.90;;;;;;5034870;28;20077;-77
2022/08/02 07:10:37;;;;;;;4.72;2.13;;;24.10;99.70;;;;;;5033463;28;20045;-77
2022/08/02 07:13:03;;;;;;;7.15;2.15;;;24.60;98.70;;;;;;5034753;28;20091;-76
2022/08/02 07:15:29;;;;;;;6.18;2.67;;;24.90;97.60;;;;;;5034545;28;20131;-76
2022/08/02 07:17:54;;;;;;;4.47;2.15;;;25.40;97.40;;;;;;5034042;28;20060;-78
2022/08/02 07:20:20;;;;;;;7.03;2.28;;;25.60;96.40;;;;;;5034240;28;20041;-77
2022/08/02 07:22:46;;;;;;;6.35;2.40;;;25.80;95.40;;;;;;5034319;28;20529;-77
2022/08/02 07:25:11;;;;;;;2.70;2.08;;;26.00;95.40;;;;;;5034541;28;20481;-77
2022/08/02 07:27:37;;;;;;;3.50;2.30;;;26.00;95.10;;;;;;5034472;28;20473;-76
2022/08/02 07:30:04;;;;;;;4.72;2.10;;;25.90;94.30;;;;;;5034073;28;20137;-77
2022/08/02 07:32:31;;;;;;;2.83;1.95;;;25.60;93.90;;;;;;5034670;28;20049;-77
2022/08/02 07:34:57;;;;;;;4.57;2.10;;;25.20;93.70;;;;;;5034215;28;20124;-77
2022/08/02 07:37:26;;;;;;;4.18;1.65;;;24.90;93.50;;;;;;5034253;28;20050;-77
2022/08/02 07:39:52;;;;;;;5.13;1.90;;;25.10;94.00;;;;;;5034466;28;20049;-76
2022/08/02 07:42:17;;;;;;;5.68;2.17;;;25.70;92.90;;;;;;5034231;28;20046;-78
2022/08/02 07:44:43;;;;;;;5.10;1.88;;;26.00;92.70;;;;;;5033968;28;20464;-77
2022/08/02 07:47:09;;;;;;;3.90;1.80;;;26.20;91.80;;;;;;5034496;28;20068;-77
2022/08/02 07:49:35;;;;;;;2.42;1.45;;;;;;;;;;5033712;28;20038;-76
2022/08/02 07:52:00;;;;;;;3.85;1.83;;;26.70;89.30;;;;;;5033064;28;20069;-77
2022/08/02 07:54:26;;;;;;;3.75;1.80;;;27.20;90.90;;;;;;5034068;28;20544;-77
2022/08/02 07:56:53;;;;;;;4.20;1.55;;;27.40;89.10;;;;;;5033795;28;20193;-77
2022/08/02 07:59:20;;;;;;;2.47;1.70;;;27.40;88.40;;;;;;5033873;28;20057;-77
2022/08/02 08:01:48;;;;;;;4.22;2.00;;;27.70;87.70;;;;;;5033815;28;20045;-73
2022/08/02 08:04:14;;;;;;;4.88;1.75;;;27.90;86.30;;;;;;5033390;28;20045;-73
2022/08/02 08:06:40;;;;;;;3.35;1.40;;;27.90;85.80;;;;;;5033233;28;20115;-71
2022/08/02 08:09:05;;;;;;;1.77;1.45;;;28.00;84.10;;;;;;5033732;28;20467;-72
2022/08/02 08:11:31;;;;;;;2.20;1.13;;;28.40;81.40;;;;;;5032910;28;20053;-73
2022/08/02 08:13:57;;;;;;;1.85;1.33;;;28.30;81.50;;;;;;5033267;28;20060;-73
2022/08/02 08:16:25;;;;;;;4.57;1.50;;;28.00;81.20;;;;;;5033157;28;20084;-72
2022/08/02 08:18:51;;;;;;;1.20;1.10;;;28.10;82.00;;;;;;5033510;28;20053;-73
2022/08/02 08:21:17;;;;;;;2.65;1.88;;;28.60;82.50;;;;;;5033192;28;20053;-73
2022/08/02 08:23:42;;;;;;;3.72;1.40;;;28.60;80.00;;;;;;5033251;28;20053;-72
2022/08/02 08:26:08;;;;;;;1.38;1.13;;;28.90;80.90;;;;;;5032981;28;20114;-73
2022/08/02 08:28:34;;;;;;;2.22;1.30;;;29.00;81.20;;;;;;5032001;28;20042;-72
2022/08/02 08:31:00;;;;;;;2.10;1.15;;;;;;;;;;5032822;28;20091;-72
2022/08/02 08:33:26;;;;;;;2.20;1.00;;;28.80;79.30;;;;;;5033371;28;20072;-72
2022/08/02 08:35:52;;;;;;;3.33;1.05;;;28.80;77.00;;;;;;5033109;28;20449;-71
2022/08/02 08:38:18;;;;;;;1.20;1.00;;;29.00;74.50;;;;;;5033119;28;20121;-72
2022/08/02 08:40:44;;;;;;;2.15;1.60;;;28.90;75.80;;;;;;5032577;28;20056;-72
2022/08/02 08:43:12;;;;;;;1.90;0.98;;;28.70;74.60;;;;;;5032748;28;20045;-72
2022/08/02 08:45:43;;;;;;;1.38;1.05;;;28.70;73.60;;;;;;5031484;28;20061;-71
2022/08/02 08:48:16;;;;;;;1.13;1.00;;;28.90;72.90;;;;;;5033040;28;20061;-71
2022/08/02 08:50:59;;;;;;;2.63;1.08;;;28.60;69.20;;;;;;5033100;28;20088;-71
2022/08/02 08:53:28;;;;;;;2.30;1.20;;;28.60;69.60;;;;;;5032730;28;20068;-71
2022/08/02 08:55:56;;;;;;;1.65;1.10;;;28.80;71.90;;;;;;5032936;28;20120;-72
2022/08/02 08:58:23;;;;;;;1.65;0.98;;;28.60;71.50;;;;;;5031549;28;20059;-72
2022/08/02 09:00:49;;;;;;;1.88;1.30;;;28.50;71.80;;;;;;5032616;28;20053;-72
2022/08/02 09:03:15;;;;;;;2.45;1.00;;;28.80;72.20;;;;;;5032164;28;20037;-72
2022/08/02 09:05:42;;;;;;;3.13;1.17;;;28.50;72.40;;;;;;5032253;28;20049;-71
2022/08/02 09:08:08;;;;;;;4.60;1.60;;;28.70;72.50;;;;;;5032378;28;20110;-71
2022/08/02 09:10:41;;;;;;;1.27;1.00;;;28.80;72.10;;;;;;5032280;28;20050;-71
2022/08/02 09:13:22;;;;;;;3.10;1.20;;;28.80;71.70;;;;;;5032413;28;20045;-72
2022/08/02 09:16:02;;;;;;;1.55;1.45;;;28.80;71.20;;;;;;5032938;28;20100;-71
2022/08/02 09:18:32;;;;;;;2.50;2.03;;;28.70;71.60;;;;;;5032275;28;20068;-72
2022/08/02 09:21:05;;;;;;;2.58;1.23;;;29.10;71.70;;;;;;5031920;28;20056;-76
2022/08/02 09:23:40;;;;;;;1.70;1.10;;;29.10;70.70;;;;;;5032125;28;20049;-76
2022/08/02 09:26:10;;;;;;;1.20;0.93;;;29.40;72.80;;;;;;5031661;28;20389;-76
2022/08/02 09:28:38;;;;;;;1.83;1.35;;;30.10;74.50;;;;;;5014261;28;20108;-76
2022/08/02 09:31:07;;;;;;;4.72;2.17;;;29.60;73.40;;;;;;5032031;28;20048;-77
2022/08/02 09:33:33;;;;;;;1.95;1.63;;;30.40;79.20;;;;;;5014676;28;20049;-77
2022/08/02 09:36:04;;;;;;;4.25;1.27;;;29.60;71.70;;;;;;5030931;28;20049;-76
2022/08/02 09:38:31;;;;;;;1.88;1.33;;;30.30;72.50;;;;;;5032289;28;20088;-77
2022/08/02 09:40:58;;;;;;;2.70;1.73;;;29.70;73.50;;;;;;5034063;28;20047;-75
2022/08/02 09:43:54;;;;;;;2.67;1.55;;;30.00;74.00;;;;;;5034806;28;20050;-77
2022/08/02 09:46:22;;;;;;;2.97;1.83;;;30.30;72.20;;;;;;5026506;28;20053;-76
2022/08/02 09:48:48;;;;;;;2.33;1.10;;;29.00;69.30;;;;;;5035918;28;20120;-76
2022/08/02 09:51:31;;;;;;;1.58;1.10;;;30.40;72.50;;;;;;5035531;28;20448;-77
2022/08/02 09:53:59;;;;;;;3.15;1.25;;;30.30;72.10;;;;;;5036111;28;20057;-77
2022/08/02 09:56:26;;;;;;;3.60;1.83;;;30.30;72.60;;;;;;5035606;28;20106;-76
2022/08/02 09:58:55;;;;;;;3.97;1.58;;;30.10;72.00;;;;;;5035500;28;20503;-76
2022/08/02 10:01:31;;;;;;;2.92;1.50;;;30.20;72.60;;;;;;5035712;28;20057;-76
2022/08/02 10:03:59;;;;;;;6.03;1.52;;;29.70;72.10;;;;;;5036051;28;20049;-76
2022/08/02 10:06:26;;;;;;;4.00;1.50;;;29.70;72.00;;;;;;5035631;28;20076;-76
2022/08/02 10:08:52;;;;;;;3.40;2.00;;;29.60;73.60;;;;;;5035700;28;20049;-76
2022/08/02 10:11:20;;;;;;;3.42;2.03;;;29.70;73.90;;;;;;5035975;28;20051;-76
2022/08/02 10:13:46;;;;;;;1.67;1.55;;;;;;;;;;5035871;28;20428;-76
2022/08/02 10:16:13;;;;;;;3.55;1.88;;;;;;;;;;5034459;28;20049;-76
2022/08/02 10:18:39;;;;;;;3.50;1.92;;;;;;;;;;5035806;28;20050;-76
2022/08/02 10:21:14;;;;;;;4.90;2.08;;;29.60;72.20;;;;;;5035403;28;20049;-76
2022/08/02 10:23:42;;;;;;;2.92;2.20;;;29.60;73.80;;;;;;5033699;28;20045;-76
2022/08/02 10:26:09;;;;;;;2.47;2.08;;;;;;;;;;5035331;28;20077;-76
2022/08/02 10:28:36;;;;;;;2.72;2.53;;;29.40;73.60;;;;;;5035287;28;20041;-76
2022/08/02 10:31:05;;;;;;;4.45;2.22;;;29.30;74.10;;;;;;5035680;28;20053;-78
2022/08/02 10:33:35;;;;;;;3.38;2.35;;;29.30;74.40;;;;;;5034218;28;20053;-77
2022/08/02 10:36:03;;;;;;;4.13;1.90;;;29.30;74.00;;;;;;5035034;28;20143;-76
2022/08/02 10:38:29;;;;;;;5.50;2.13;;;29.30;74.40;;;;;;5050765;28;20025;-76
2022/08/02 10:40:55;;;;;;;4.35;1.95;;;;;;;;;;5056821;28;20104;-77
2022/08/02 10:43:30;;;;;;;4.47;2.05;;;29.50;75.60;;;;;;5055815;28;20038;-77
2022/08/02 10:46:34;;;;;;;5.18;2.20;;;29.30;76.00;;;;;;5055944;28;20096;-77
2022/08/02 10:49:18;;;;;;;2.35;2.15;;;29.30;75.60;;;;;;5035986;28;20061;-77
2022/08/02 10:51:59;;;;;;;4.72;2.47;;;29.40;77.10;;;;;;5033564;28;20488;-78
2022/08/02 10:54:27;;;;;;;2.58;2.08;;;29.40;76.60;;;;;;5034811;28;20103;-78
2022/08/02 10:56:55;;;;;;;2.55;2.20;;;29.50;77.90;;;;;;5034678;28;20111;-78
2022/08/02 10:59:28;;;;;;;2.95;2.13;;;29.60;77.40;;;;;;5033237;28;20479;-77
2022/08/02 11:02:01;;;;;;;6.15;2.72;;;29.90;77.90;;;;;;5034744;28;20425;-77
2022/08/02 11:04:36;;;;;;;3.13;2.30;;;29.90;77.30;;;;;;5034948;28;20120;-77
2022/08/02 11:07:16;;;;;;;3.70;2.20;;;29.80;78.10;;;;;;5034421;28;20088;-81
2022/08/02 11:09:42;;;;;;;3.25;2.45;;;29.70;78.00;;;;;;5035028;28;20048;-77
2022/08/02 11:12:13;;;;;;;4.63;2.67;;;29.70;78.40;;;;;;5034956;28;20056;-76
2022/08/02 11:14:41;;;;;;;3.25;2.60;;;29.70;78.10;;;;;;5034699;28;20033;-77
2022/08/02 11:17:19;;;;;;;4.00;2.40;;;29.70;78.00;;;;;;5033513;28;20045;-77
2022/08/02 11:20:09;;;;;;;4.07;2.50;;;29.60;78.30;;;;;;5034493;28;20057;-77
2022/08/02 11:22:35;;;;;;;6.25;2.47;;;29.50;77.30;;;;;;5034584;28;20102;-77
2022/08/02 11:25:22;;;;;;;4.40;2.22;;;29.40;78.20;;;;;;5034186;28;20042;-77
2022/08/02 11:28:18;;;;;;;9.57;2.65;;;29.30;79.80;;;;;;5034394;28;20427;-76
2022/08/02 11:30:44;;;;;;;4.97;2.55;;;29.20;77.80;;;;;;5031199;28;20057;-77
2022/08/02 11:33:10;;;;;;;3.40;2.22;;;29.20;77.80;;;;;;5034058;28;20045;-77
2022/08/02 11:35:38;;;;;;;2.55;1.88;;;29.30;77.80;;;;;;5033184;28;20063;-76
2022/08/02 11:38:19;;;;;;;6.00;2.90;;;29.10;83.00;;;;;;5034089;28;20084;-77
2022/08/02 11:40:46;;;;;;;4.25;2.80;;;28.20;82.70;;;;;;5034107;28;20049;-77
2022/08/02 11:43:23;;;;;;;3.08;2.35;;;28.30;84.00;;;;;;5033802;28;20487;-77
2022/08/02 11:45:51;;;;;;;2.72;2.47;;;29.30;84.30;;;;;;5033648;28;20402;-77
2022/08/02 11:48:36;;;;;;;4.75;2.33;;;29.00;84.00;;;;;;5033812;28;20045;-77
2022/08/02 11:51:03;;;;;;;3.30;2.13;;;28.70;79.60;;;;;;5033863;28;20114;-77
2022/08/02 11:53:32;;;;;;;5.38;2.47;;;29.20;84.30;;;;;;5033232;28;20186;-76
2022/08/02 11:55:58;;;;;;;2.70;2.20;;;29.00;79.80;;;;;;5033945;28;20072;-76
2022/08/02 11:58:24;;;;;;;3.63;2.65;;;28.90;79.20;;;;;;5033407;28;20505;-77
2022/08/02 12:00:52;;;;;;;4.28;2.47;;;28.70;79.20;;;;;;5033742;28;20076;-77
2022/08/02 12:03:17;;;;;;;3.85;2.42;;;28.70;80.70;;;;;;5032735;28;20064;-77
2022/08/02 12:05:49;;;;;;;3.90;2.70;;;28.60;79.90;;;;;;5032734;28;20075;-78
2022/08/02 12:08:18;;;;;;;7.05;2.67;;;28.80;80.30;;;;;;5033334;28;20080;-78
2022/08/02 12:10:48;;;;;;;3.92;3.25;;;29.00;80.30;;;;;;5033221;28;20136;-77
2022/08/02 12:13:14;;;;;;;4.30;2.53;;;29.10;79.20;;;;;;5033144;28;20115;-77
2022/08/02 12:15:44;;;;;;;3.78;2.50;;;29.10;80.30;;;;;;5033351;28;20056;-77
2022/08/02 12:21:25;;;;;;;4.05;2.60;;;29.10;79.50;;;;;;5033387;28;20148;-77
2022/08/02 12:23:52;;;;;;;4.63;1.73;;;29.00;79.50;;;;;;5033041;28;20071;-77
2022/08/02 12:26:17;;;;;;;4.72;1.88;;;29.00;79.80;;;;;;5032670;28;20053;-76
2022/08/02 12:28:43;;;;;;;3.33;1.85;;;29.10;80.40;;;;;;5032457;28;20129;-76
2022/08/02 12:31:13;;;;;;;2.33;1.77;;;29.00;79.60;;;;;;5032024;28;20045;-76
2022/08/02 12:34:15;;;;;;;5.80;1.85;;;28.90;79.90;;;;;;5033398;28;20127;-76
2022/08/02 12:36:41;;;;;;;3.63;1.77;;;28.70;79.70;;;;;;5025737;28;20080;-76
2022/08/02 12:39:14;;;;;;;3.28;2.00;;;28.50;79.60;;;;;;5033304;28;20449;-75
2022/08/02 12:41:40;;;;;;;2.03;1.80;;;28.50;80.00;;;;;;5033435;28;20060;-76
2022/08/02 12:44:15;;;;;;;4.60;2.10;;;28.50;80.70;;;;;;5032920;28;20138;-76
2022/08/02 12:46:41;;;;;;;3.35;2.17;;;28.40;79.90;;;;;;5032098;28;20057;-75
2022/08/02 12:49:17;;;;;;;2.90;2.33;;;28.40;80.90;;;;;;5032607;28;20071;-76
2022/08/02 12:51:43;;;;;;;5.47;2.40;;;28.50;81.20;;;;;;5032462;28;20096;-76
2022/08/02 12:54:21;;;;;;;3.38;2.30;;;28.50;81.30;;;;;;5033045;28;20059;-75
2022/08/02 12:56:48;;;;;;;3.28;2.28;;;28.40;80.60;;;;;;5032640;28;20123;-75
2022/08/02 12:59:15;;;;;;;2.72;2.50;;;28.50;82.00;;;;;;5032506;28;20053;-75
2022/08/02 13:01:41;;;;;;;4.75;3.40;;;28.40;81.90;;;;;;5032455;28;20128;-75
2022/08/02 13:04:07;;;;;;;3.72;3.15;;;28.20;82.10;;;;;;5032383;28;20548;-76